sensor_id;sensor_type;location;lat;lon;timestamp;temperature;humidity
5009;DHT22;2523;51.058;6.922;2024-01-30T00:01:01;7.90;99.90
5009;DHT22;2523;51.058;6.922;2024-01-30T00:03:27;7.90;99.90
5009;DHT22;2523;51.058;6.922;2024-01-30T00:05:52;7.90;99.90
5009;DHT22;2523;51.058;6.922;2024-01-30T00:08:18;7.90;99.90
5009;DHT22;2523;51.058;6.922;2024-01-30T00:10:43;7.90;99.90
5009;DHT22;2523;51.058;6.922;2024-01-30T00:13:09;7.90;99.90
5009;DHT22;2523;51.058;6.922;2024-01-30T00:15:34;7.90;99.90
5009;DHT22;2523;51.058;6.922;2024-01-30T00:18:00;7.90;99.90
5009;DHT22;2523;51.058;6.922;2024-01-30T00:20:26;7.90;99.90
5009;DHT22;2523;51.058;6.922;2024-01-30T00:22:52;7.90;99.90
5009;DHT22;2523;51.058;6.922;2024-01-30T00:25:17;7.90;99.90
5009;DHT22;2523;51.058;6.922;2024-01-30T00:27:43;7.90;99.90
5009;DHT22;2523;51.058;6.922;2024-01-30T00:30:10;7.80;99.90
5009;DHT22;2523;51.058;6.922;2024-01-30T00:32:35;7.90;99.90
5009;DHT22;2523;51.058;6.922;2024-01-30T00:35:01;7.90;99.90
5009;DHT22;2523;51.058;6.922;2024-01-30T00:37:26;7.80;99.90
5009;DHT22;2523;51.058;6.922;2024-01-30T00:39:52;7.90;99.90
5009;DHT22;2523;51.058;6.922;2024-01-30T00:42:17;7.90;99.90
5009;DHT22;2523;51.058;6.922;2024-01-30T00:44:43;7.90;99.90
5009;DHT22;2523;51.058;6.922;2024-01-30T00:47:08;7.80;99.90
5009;DHT22;2523;51.058;6.922;2024-01-30T00:49:34;7.80;99.90
5009;DHT22;2523;51.058;6.922;2024-01-30T00:51:59;7.80;99.90
5009;DHT22;2523;51.058;6.922;2024-01-30T00:54:25;7.70;99.90
5009;DHT22;2523;51.058;6.922;2024-01-30T00:56:51;7.60;99.90
5009;DHT22;2523;51.058;6.922;2024-01-30T00:59:16;7.60;99.90
5009;DHT22;2523;51.058;6.922;2024-01-30T01:01:42;7.70;99.90
5009;DHT22;2523;51.058;6.922;2024-01-30T01:04:07;7.60;99.90
5009;DHT22;2523;51.058;6.922;2024-01-30T01:06:33;7.60;99.90
5009;DHT22;2523;51.058;6.922;2024-01-30T01:08:58;7.70;99.90
5009;DHT22;2523;51.058;6.922;2024-01-30T01:11:24;7.70;99.90
5009;DHT22;2523;51.058;6.922;2024-01-30T01:13:49;7.80;99.90
5009;DHT22;2523;51.058;6.922;2024-01-30T01:16:15;7.70;99.90
5009;DHT22;2523;51.058;6.922;2024-01-30T01:18:40;7.80;99.90
5009;DHT22;2523;51.058;6.922;2024-01-30T01:21:06;7.80;99.90
5009;DHT22;2523;51.058;6.922;2024-01-30T01:23:31;7.80;99.90
5009;DHT22;2523;51.058;6.922;2024-01-30T01:25:57;7.80;99.90
5009;DHT22;2523;51.058;6.922;2024-01-30T01:28:25;7.80;99.90
5009;DHT22;2523;51.058;6.922;2024-01-30T01:30:50;7.80;99.90
5009;DHT22;2523;51.058;6.922;2024-01-30T01:33:16;7.80;99.90
5009;DHT22;2523;51.058;6.922;2024-01-30T01:35:42;7.60;99.90
5009;DHT22;2523;51.058;6.922;2024-01-30T01:38:08;7.70;99.90
5009;DHT22;2523;51.058;6.922;2024-01-30T01:40:34;7.70;99.90
5009;DHT22;2523;51.058;6.922;2024-01-30T01:43:03;7.70;99.90
5009;DHT22;2523;51.058;6.922;2024-01-30T01:45:28;7.70;99.90
5009;DHT22;2523;51.058;6.922;2024-01-30T01:47:54;7.60;99.90
5009;DHT22;2523;51.058;6.922;2024-01-30T01:50:21;7.60;99.90
5009;DHT22;2523;51.058;6.922;2024-01-30T01:52:50;7.60;99.90
5009;DHT22;2523;51.058;6.922;2024-01-30T01:55:19;7.60;99.90
5009;DHT22;2523;51.058;6.922;2024-01-30T01:57:47;7.60;99.90
5009;DHT22;2523;51.058;6.922;2024-01-30T02:00:13;7.60;99.90
5009;DHT22;2523;51.058;6.922;2024-01-30T02:02:39;7.70;99.90
5009;DHT22;2523;51.058;6.922;2024-01-30T02:05:05;7.70;99.90
5009;DHT22;2523;51.058;6.922;2024-01-30T02:07:31;7.70;99.90
5009;DHT22;2523;51.058;6.922;2024-01-30T02:09:56;7.70;99.90
5009;DHT22;2523;51.058;6.922;2024-01-30T02:12:22;7.70;99.90
5009;DHT22;2523;51.058;6.922;2024-01-30T02:14:48;7.70;99.90
5009;DHT22;2523;51.058;6.922;2024-01-30T02:17:15;7.80;99.90
5009;DHT22;2523;51.058;6.922;2024-01-30T02:19:41;7.80;99.90
5009;DHT22;2523;51.058;6.922;2024-01-30T02:22:07;7.80;99.90
5009;DHT22;2523;51.058;6.922;2024-01-30T02:24:33;7.80;99.90
5009;DHT22;2523;51.058;6.922;2024-01-30T02:26:59;7.80;99.90
5009;DHT22;2523;51.058;6.922;2024-01-30T02:29:24;7.80;99.90
5009;DHT22;2523;51.058;6.922;2024-01-30T02:31:50;7.80;99.90
5009;DHT22;2523;51.058;6.922;2024-01-30T02:34:15;7.80;99.90
5009;DHT22;2523;51.058;6.922;2024-01-30T02:36:44;7.90;99.90
5009;DHT22;2523;51.058;6.922;2024-01-30T02:39:09;7.90;99.90
5009;DHT22;2523;51.058;6.922;2024-01-30T02:41:35;7.80;99.90
5009;DHT22;2523;51.058;6.922;2024-01-30T02:44:04;7.90;99.90
5009;DHT22;2523;51.058;6.922;2024-01-30T02:46:29;7.90;99.90
5009;DHT22;2523;51.058;6.922;2024-01-30T02:48:55;7.90;99.90
5009;DHT22;2523;51.058;6.922;2024-01-30T02:51:21;8.00;99.90
5009;DHT22;2523;51.058;6.922;2024-01-30T02:53:46;8.00;99.90
5009;DHT22;2523;51.058;6.922;2024-01-30T02:56:12;8.00;99.90
5009;DHT22;2523;51.058;6.922;2024-01-30T02:58:39;8.00;99.90
5009;DHT22;2523;51.058;6.922;2024-01-30T03:01:05;8.00;99.90
5009;DHT22;2523;51.058;6.922;2024-01-30T03:03:30;8.00;99.90
5009;DHT22;2523;51.058;6.922;2024-01-30T03:05:56;8.00;99.90
5009;DHT22;2523;51.058;6.922;2024-01-30T03:08:21;8.00;99.90
5009;DHT22;2523;51.058;6.922;2024-01-30T03:10:47;8.00;99.90
5009;DHT22;2523;51.058;6.922;2024-01-30T03:13:13;7.90;99.90
5009;DHT22;2523;51.058;6.922;2024-01-30T03:15:38;8.00;99.90
5009;DHT22;2523;51.058;6.922;2024-01-30T03:18:04;8.00;99.90
5009;DHT22;2523;51.058;6.922;2024-01-30T03:20:30;8.00;99.90
5009;DHT22;2523;51.058;6.922;2024-01-30T03:22:55;8.00;99.90
5009;DHT22;2523;51.058;6.922;2024-01-30T03:25:21;8.00;99.90
5009;DHT22;2523;51.058;6.922;2024-01-30T03:27:47;8.00;99.90
5009;DHT22;2523;51.058;6.922;2024-01-30T03:30:12;8.00;99.90
5009;DHT22;2523;51.058;6.922;2024-01-30T03:32:38;8.00;99.90
5009;DHT22;2523;51.058;6.922;2024-01-30T03:35:04;8.00;99.90
5009;DHT22;2523;51.058;6.922;2024-01-30T03:37:30;8.00;99.90
5009;DHT22;2523;51.058;6.922;2024-01-30T03:39:55;7.90;99.90
5009;DHT22;2523;51.058;6.922;2024-01-30T03:42:21;8.00;99.90
5009;DHT22;2523;51.058;6.922;2024-01-30T03:44:47;8.00;99.90
5009;DHT22;2523;51.058;6.922;2024-01-30T03:47:13;8.00;99.90
5009;DHT22;2523;51.058;6.922;2024-01-30T03:49:39;8.00;99.90
5009;DHT22;2523;51.058;6.922;2024-01-30T03:52:04;8.00;99.90
5009;DHT22;2523;51.058;6.922;2024-01-30T03:54:30;8.00;99.90
5009;DHT22;2523;51.058;6.922;2024-01-30T03:56:55;8.00;99.90
5009;DHT22;2523;51.058;6.922;2024-01-30T03:59:21;8.00;99.90
5009;DHT22;2523;51.058;6.922;2024-01-30T04:01:50;8.00;99.90
5009;DHT22;2523;51.058;6.922;2024-01-30T04:04:16;8.00;99.90
5009;DHT22;2523;51.058;6.922;2024-01-30T04:06:42;8.00;99.90
5009;DHT22;2523;51.058;6.922;2024-01-30T04:09:07;8.00;99.90
5009;DHT22;2523;51.058;6.922;2024-01-30T04:11:33;8.10;99.90
5009;DHT22;2523;51.058;6.922;2024-01-30T04:13:58;8.10;99.90
5009;DHT22;2523;51.058;6.922;2024-01-30T04:16:24;8.10;99.90
5009;DHT22;2523;51.058;6.922;2024-01-30T04:18:51;8.00;99.90
5009;DHT22;2523;51.058;6.922;2024-01-30T04:21:17;7.90;99.90
5009;DHT22;2523;51.058;6.922;2024-01-30T04:23:42;7.90;99.90
5009;DHT22;2523;51.058;6.922;2024-01-30T04:26:08;7.90;99.90
5009;DHT22;2523;51.058;6.922;2024-01-30T04:28:33;7.90;99.90
5009;DHT22;2523;51.058;6.922;2024-01-30T04:30:59;7.90;99.90
5009;DHT22;2523;51.058;6.922;2024-01-30T04:33:24;7.90;99.90
5009;DHT22;2523;51.058;6.922;2024-01-30T04:35:50;7.90;99.90
5009;DHT22;2523;51.058;6.922;2024-01-30T04:38:15;7.80;99.90
5009;DHT22;2523;51.058;6.922;2024-01-30T04:40:41;7.60;99.90
5009;DHT22;2523;51.058;6.922;2024-01-30T04:43:07;7.60;99.90
5009;DHT22;2523;51.058;6.922;2024-01-30T04:45:32;7.60;99.90
5009;DHT22;2523;51.058;6.922;2024-01-30T04:47:58;7.70;99.90
5009;DHT22;2523;51.058;6.922;2024-01-30T04:50:23;7.70;99.90
5009;DHT22;2523;51.058;6.922;2024-01-30T04:52:49;7.70;99.90
5009;DHT22;2523;51.058;6.922;2024-01-30T04:55:14;7.70;99.90
5009;DHT22;2523;51.058;6.922;2024-01-30T04:57:40;7.70;99.90
5009;DHT22;2523;51.058;6.922;2024-01-30T05:00:06;7.60;99.90
5009;DHT22;2523;51.058;6.922;2024-01-30T05:02:32;7.60;99.90
5009;DHT22;2523;51.058;6.922;2024-01-30T05:04:58;7.70;99.90
5009;DHT22;2523;51.058;6.922;2024-01-30T05:07:24;7.60;99.90
5009;DHT22;2523;51.058;6.922;2024-01-30T05:09:51;7.60;99.90
5009;DHT22;2523;51.058;6.922;2024-01-30T05:12:16;7.60;99.90
5009;DHT22;2523;51.058;6.922;2024-01-30T05:14:42;7.50;99.90
5009;DHT22;2523;51.058;6.922;2024-01-30T05:17:07;7.50;99.90
5009;DHT22;2523;51.058;6.922;2024-01-30T05:19:38;7.40;99.90
5009;DHT22;2523;51.058;6.922;2024-01-30T05:22:03;7.50;99.90
5009;DHT22;2523;51.058;6.922;2024-01-30T05:24:29;7.40;99.90
5009;DHT22;2523;51.058;6.922;2024-01-30T05:26:54;7.50;99.90
5009;DHT22;2523;51.058;6.922;2024-01-30T05:29:20;7.50;99.90
5009;DHT22;2523;51.058;6.922;2024-01-30T05:31:45;7.40;99.90
5009;DHT22;2523;51.058;6.922;2024-01-30T05:34:11;7.40;99.90
5009;DHT22;2523;51.058;6.922;2024-01-30T05:36:37;7.40;99.90
5009;DHT22;2523;51.058;6.922;2024-01-30T05:39:02;7.40;99.90
5009;DHT22;2523;51.058;6.922;2024-01-30T05:41:28;7.40;99.90
5009;DHT22;2523;51.058;6.922;2024-01-30T05:43:53;7.40;99.90
5009;DHT22;2523;51.058;6.922;2024-01-30T05:46:19;7.40;99.90
5009;DHT22;2523;51.058;6.922;2024-01-30T05:48:44;7.50;99.90
5009;DHT22;2523;51.058;6.922;2024-01-30T05:51:10;7.50;99.90
5009;DHT22;2523;51.058;6.922;2024-01-30T05:53:36;7.50;99.90
5009;DHT22;2523;51.058;6.922;2024-01-30T05:56:02;7.50;99.90
5009;DHT22;2523;51.058;6.922;2024-01-30T05:58:27;7.50;99.90
5009;DHT22;2523;51.058;6.922;2024-01-30T06:00:53;7.50;99.90
5009;DHT22;2523;51.058;6.922;2024-01-30T06:03:18;7.50;99.90
5009;DHT22;2523;51.058;6.922;2024-01-30T06:05:44;7.50;99.90
5009;DHT22;2523;51.058;6.922;2024-01-30T06:08:10;7.50;99.90
5009;DHT22;2523;51.058;6.922;2024-01-30T06:10:35;7.50;99.90
5009;DHT22;2523;51.058;6.922;2024-01-30T06:13:01;7.60;99.90
5009;DHT22;2523;51.058;6.922;2024-01-30T06:15:27;7.70;99.90
5009;DHT22;2523;51.058;6.922;2024-01-30T06:17:55;7.60;99.90
5009;DHT22;2523;51.058;6.922;2024-01-30T06:20:20;7.60;99.90
5009;DHT22;2523;51.058;6.922;2024-01-30T06:22:46;7.60;99.90
5009;DHT22;2523;51.058;6.922;2024-01-30T06:25:12;7.60;99.90
5009;DHT22;2523;51.058;6.922;2024-01-30T06:27:37;7.60;99.90
5009;DHT22;2523;51.058;6.922;2024-01-30T06:30:04;7.60;99.90
5009;DHT22;2523;51.058;6.922;2024-01-30T06:32:30;7.50;99.90
5009;DHT22;2523;51.058;6.922;2024-01-30T06:35:00;7.60;99.90
5009;DHT22;2523;51.058;6.922;2024-01-30T06:37:25;7.60;99.90
5009;DHT22;2523;51.058;6.922;2024-01-30T06:39:51;7.60;99.90
5009;DHT22;2523;51.058;6.922;2024-01-30T06:42:18;7.70;99.90
5009;DHT22;2523;51.058;6.922;2024-01-30T06:44:43;7.70;99.90
5009;DHT22;2523;51.058;6.922;2024-01-30T06:47:09;7.70;99.90
5009;DHT22;2523;51.058;6.922;2024-01-30T06:49:35;7.70;99.90
5009;DHT22;2523;51.058;6.922;2024-01-30T06:52:07;7.70;99.90
5009;DHT22;2523;51.058;6.922;2024-01-30T06:54:33;7.70;99.90
5009;DHT22;2523;51.058;6.922;2024-01-30T06:56:59;7.80;99.90
5009;DHT22;2523;51.058;6.922;2024-01-30T06:59:24;7.80;99.90
5009;DHT22;2523;51.058;6.922;2024-01-30T07:01:50;7.80;99.90
5009;DHT22;2523;51.058;6.922;2024-01-30T07:04:16;7.80;99.90
5009;DHT22;2523;51.058;6.922;2024-01-30T07:06:42;7.80;99.90
5009;DHT22;2523;51.058;6.922;2024-01-30T07:09:08;7.80;99.90
5009;DHT22;2523;51.058;6.922;2024-01-30T07:11:34;7.80;99.90
5009;DHT22;2523;51.058;6.922;2024-01-30T07:13:59;7.80;99.90
5009;DHT22;2523;51.058;6.922;2024-01-30T07:16:25;7.90;99.90
5009;DHT22;2523;51.058;6.922;2024-01-30T07:18:51;7.80;99.90
5009;DHT22;2523;51.058;6.922;2024-01-30T07:21:16;7.80;99.90
5009;DHT22;2523;51.058;6.922;2024-01-30T07:23:42;7.90;99.90
5009;DHT22;2523;51.058;6.922;2024-01-30T07:26:08;7.90;99.90
5009;DHT22;2523;51.058;6.922;2024-01-30T07:28:35;7.80;99.90
5009;DHT22;2523;51.058;6.922;2024-01-30T07:31:03;7.80;99.90
5009;DHT22;2523;51.058;6.922;2024-01-30T07:33:29;7.90;99.90
5009;DHT22;2523;51.058;6.922;2024-01-30T07:35:54;8.00;99.90
5009;DHT22;2523;51.058;6.922;2024-01-30T07:38:20;8.00;99.90
5009;DHT22;2523;51.058;6.922;2024-01-30T07:40:46;8.00;99.90
5009;DHT22;2523;51.058;6.922;2024-01-30T07:43:11;8.00;99.90
5009;DHT22;2523;51.058;6.922;2024-01-30T07:45:37;8.00;99.90
5009;DHT22;2523;51.058;6.922;2024-01-30T07:48:05;8.00;99.90
5009;DHT22;2523;51.058;6.922;2024-01-30T07:50:30;8.10;99.90
5009;DHT22;2523;51.058;6.922;2024-01-30T07:52:59;8.00;99.90
5009;DHT22;2523;51.058;6.922;2024-01-30T07:55:24;8.00;99.90
5009;DHT22;2523;51.058;6.922;2024-01-30T07:57:52;8.10;99.90
5009;DHT22;2523;51.058;6.922;2024-01-30T08:00:19;8.10;99.90
5009;DHT22;2523;51.058;6.922;2024-01-30T08:02:45;8.10;99.90
5009;DHT22;2523;51.058;6.922;2024-01-30T08:05:11;8.20;99.90
5009;DHT22;2523;51.058;6.922;2024-01-30T08:07:37;8.10;99.90
5009;DHT22;2523;51.058;6.922;2024-01-30T08:10:03;8.10;99.90
5009;DHT22;2523;51.058;6.922;2024-01-30T08:12:29;8.20;99.90
5009;DHT22;2523;51.058;6.922;2024-01-30T08:14:54;8.20;99.90
5009;DHT22;2523;51.058;6.922;2024-01-30T08:17:20;8.10;99.90
5009;DHT22;2523;51.058;6.922;2024-01-30T08:19:45;8.20;99.90
5009;DHT22;2523;51.058;6.922;2024-01-30T08:22:12;8.20;99.90
5009;DHT22;2523;51.058;6.922;2024-01-30T08:24:37;8.20;99.90
5009;DHT22;2523;51.058;6.922;2024-01-30T08:27:06;8.20;99.90
5009;DHT22;2523;51.058;6.922;2024-01-30T08:29:32;8.20;99.90
5009;DHT22;2523;51.058;6.922;2024-01-30T08:31:57;8.30;99.90
5009;DHT22;2523;51.058;6.922;2024-01-30T08:34:24;8.30;99.90
5009;DHT22;2523;51.058;6.922;2024-01-30T08:36:50;8.30;99.90
5009;DHT22;2523;51.058;6.922;2024-01-30T08:39:15;8.40;99.90
5009;DHT22;2523;51.058;6.922;2024-01-30T08:41:41;8.40;99.90
5009;DHT22;2523;51.058;6.922;2024-01-30T08:44:06;8.50;99.90
5009;DHT22;2523;51.058;6.922;2024-01-30T08:46:32;8.50;99.90
5009;DHT22;2523;51.058;6.922;2024-01-30T08:48:59;8.50;99.90
5009;DHT22;2523;51.058;6.922;2024-01-30T08:51:24;8.60;99.90
5009;DHT22;2523;51.058;6.922;2024-01-30T08:53:50;8.60;99.90
5009;DHT22;2523;51.058;6.922;2024-01-30T08:56:16;8.60;99.90
5009;DHT22;2523;51.058;6.922;2024-01-30T08:58:42;8.70;99.90
5009;DHT22;2523;51.058;6.922;2024-01-30T09:01:07;8.70;99.90
5009;DHT22;2523;51.058;6.922;2024-01-30T09:03:33;8.80;99.90
5009;DHT22;2523;51.058;6.922;2024-01-30T09:05:59;8.90;99.90
5009;DHT22;2523;51.058;6.922;2024-01-30T09:08:24;8.90;99.90
5009;DHT22;2523;51.058;6.922;2024-01-30T09:10:50;9.00;99.90
5009;DHT22;2523;51.058;6.922;2024-01-30T09:13:16;9.00;99.90
5009;DHT22;2523;51.058;6.922;2024-01-30T09:15:42;9.10;99.90
5009;DHT22;2523;51.058;6.922;2024-01-30T09:18:07;9.30;99.90
5009;DHT22;2523;51.058;6.922;2024-01-30T09:20:33;9.30;99.90
5009;DHT22;2523;51.058;6.922;2024-01-30T09:22:58;9.50;99.90
5009;DHT22;2523;51.058;6.922;2024-01-30T09:25:24;9.60;99.90
5009;DHT22;2523;51.058;6.922;2024-01-30T09:27:49;9.60;99.90
5009;DHT22;2523;51.058;6.922;2024-01-30T09:30:15;9.60;99.90
5009;DHT22;2523;51.058;6.922;2024-01-30T09:32:41;9.60;99.90
5009;DHT22;2523;51.058;6.922;2024-01-30T09:35:07;9.60;99.90
5009;DHT22;2523;51.058;6.922;2024-01-30T09:37:33;9.60;99.90
5009;DHT22;2523;51.058;6.922;2024-01-30T09:39:58;9.70;99.90
5009;DHT22;2523;51.058;6.922;2024-01-30T09:42:33;9.70;99.90
5009;DHT22;2523;51.058;6.922;2024-01-30T09:45:05;9.80;99.90
5009;DHT22;2523;51.058;6.922;2024-01-30T09:47:41;9.80;99.90
5009;DHT22;2523;51.058;6.922;2024-01-30T09:50:09;9.80;99.90
5009;DHT22;2523;51.058;6.922;2024-01-30T09:52:35;9.80;99.90
5009;DHT22;2523;51.058;6.922;2024-01-30T09:55:00;9.80;99.90
5009;DHT22;2523;51.058;6.922;2024-01-30T09:57:27;9.90;99.90
5009;DHT22;2523;51.058;6.922;2024-01-30T09:59:53;10.00;99.90
5009;DHT22;2523;51.058;6.922;2024-01-30T10:02:19;10.00;99.90
5009;DHT22;2523;51.058;6.922;2024-01-30T10:04:48;10.20;99.90
5009;DHT22;2523;51.058;6.922;2024-01-30T10:07:14;10.20;99.90
5009;DHT22;2523;51.058;6.922;2024-01-30T10:09:40;10.20;99.90
5009;DHT22;2523;51.058;6.922;2024-01-30T10:12:06;10.30;99.90
5009;DHT22;2523;51.058;6.922;2024-01-30T10:14:31;10.30;99.90
5009;DHT22;2523;51.058;6.922;2024-01-30T10:16:58;10.30;99.90
5009;DHT22;2523;51.058;6.922;2024-01-30T10:19:23;10.20;99.90
5009;DHT22;2523;51.058;6.922;2024-01-30T10:21:49;10.30;99.90
5009;DHT22;2523;51.058;6.922;2024-01-30T10:24:14;10.50;99.90
5009;DHT22;2523;51.058;6.922;2024-01-30T10:26:40;11.10;99.90
5009;DHT22;2523;51.058;6.922;2024-01-30T10:29:08;11.10;99.90
5009;DHT22;2523;51.058;6.922;2024-01-30T10:31:34;10.90;99.90
5009;DHT22;2523;51.058;6.922;2024-01-30T10:34:00;10.70;99.90
5009;DHT22;2523;51.058;6.922;2024-01-30T10:36:28;10.60;99.90
5009;DHT22;2523;51.058;6.922;2024-01-30T10:38:55;10.50;99.90
5009;DHT22;2523;51.058;6.922;2024-01-30T10:41:26;10.50;99.90
5009;DHT22;2523;51.058;6.922;2024-01-30T10:44:02;10.40;99.90
5009;DHT22;2523;51.058;6.922;2024-01-30T10:46:32;10.40;99.90
5009;DHT22;2523;51.058;6.922;2024-01-30T10:49:00;10.40;99.90
5009;DHT22;2523;51.058;6.922;2024-01-30T10:51:27;10.50;99.90
5009;DHT22;2523;51.058;6.922;2024-01-30T10:53:53;10.50;99.90
5009;DHT22;2523;51.058;6.922;2024-01-30T10:56:21;10.60;99.90
5009;DHT22;2523;51.058;6.922;2024-01-30T10:58:53;10.60;99.90
5009;DHT22;2523;51.058;6.922;2024-01-30T11:01:22;10.70;99.90
5009;DHT22;2523;51.058;6.922;2024-01-30T11:03:53;10.70;99.90
5009;DHT22;2523;51.058;6.922;2024-01-30T11:06:23;10.80;99.90
5009;DHT22;2523;51.058;6.922;2024-01-30T11:09:05;10.80;99.90
5009;DHT22;2523;51.058;6.922;2024-01-30T11:11:51;10.90;99.90
5009;DHT22;2523;51.058;6.922;2024-01-30T11:14:23;11.00;99.90
5009;DHT22;2523;51.058;6.922;2024-01-30T11:16:50;11.10;99.90
5009;DHT22;2523;51.058;6.922;2024-01-30T11:19:22;11.10;99.90
5009;DHT22;2523;51.058;6.922;2024-01-30T11:21:50;11.10;99.90
5009;DHT22;2523;51.058;6.922;2024-01-30T11:24:20;11.10;99.90
5009;DHT22;2523;51.058;6.922;2024-01-30T11:26:56;11.10;99.90
5009;DHT22;2523;51.058;6.922;2024-01-30T11:29:29;11.20;99.90
5009;DHT22;2523;51.058;6.922;2024-01-30T11:31:57;11.30;99.90
5009;DHT22;2523;51.058;6.922;2024-01-30T11:34:22;11.40;99.90
5009;DHT22;2523;51.058;6.922;2024-01-30T11:36:52;11.50;99.90
5009;DHT22;2523;51.058;6.922;2024-01-30T11:39:20;11.60;99.90
5009;DHT22;2523;51.058;6.922;2024-01-30T11:41:50;11.60;99.90
5009;DHT22;2523;51.058;6.922;2024-01-30T11:44:16;11.70;99.90
5009;DHT22;2523;51.058;6.922;2024-01-30T11:46:41;11.80;99.90
5009;DHT22;2523;51.058;6.922;2024-01-30T11:49:07;11.80;99.90
5009;DHT22;2523;51.058;6.922;2024-01-30T11:51:33;11.80;99.90
5009;DHT22;2523;51.058;6.922;2024-01-30T11:53:58;11.90;99.90
5009;DHT22;2523;51.058;6.922;2024-01-30T11:56:24;12.10;99.90
5009;DHT22;2523;51.058;6.922;2024-01-30T11:58:50;12.10;99.90
5009;DHT22;2523;51.058;6.922;2024-01-30T12:01:17;12.10;99.90
5009;DHT22;2523;51.058;6.922;2024-01-30T12:03:49;12.10;99.90
5009;DHT22;2523;51.058;6.922;2024-01-30T12:06:15;12.10;99.90
5009;DHT22;2523;51.058;6.922;2024-01-30T12:08:41;12.00;99.90
5009;DHT22;2523;51.058;6.922;2024-01-30T12:11:07;12.00;99.90
5009;DHT22;2523;51.058;6.922;2024-01-30T12:13:32;11.90;99.90
5009;DHT22;2523;51.058;6.922;2024-01-30T12:15:58;11.90;99.90
5009;DHT22;2523;51.058;6.922;2024-01-30T12:18:24;11.90;99.90
5009;DHT22;2523;51.058;6.922;2024-01-30T12:20:59;11.90;99.90
5009;DHT22;2523;51.058;6.922;2024-01-30T12:23:29;11.90;99.90
5009;DHT22;2523;51.058;6.922;2024-01-30T12:25:55;11.90;99.90
5009;DHT22;2523;51.058;6.922;2024-01-30T12:28:20;11.90;99.90
5009;DHT22;2523;51.058;6.922;2024-01-30T12:30:46;11.80;99.90
5009;DHT22;2523;51.058;6.922;2024-01-30T12:33:18;11.80;99.90
5009;DHT22;2523;51.058;6.922;2024-01-30T12:35:47;11.80;99.90
5009;DHT22;2523;51.058;6.922;2024-01-30T12:38:14;11.90;99.90
5009;DHT22;2523;51.058;6.922;2024-01-30T12:40:40;11.90;99.90
5009;DHT22;2523;51.058;6.922;2024-01-30T12:43:05;11.90;99.90
5009;DHT22;2523;51.058;6.922;2024-01-30T12:45:31;11.90;99.90
5009;DHT22;2523;51.058;6.922;2024-01-30T12:47:56;11.80;99.90
5009;DHT22;2523;51.058;6.922;2024-01-30T12:50:23;11.80;99.90
5009;DHT22;2523;51.058;6.922;2024-01-30T12:52:49;11.70;99.90
5009;DHT22;2523;51.058;6.922;2024-01-30T12:55:15;11.70;99.90
5009;DHT22;2523;51.058;6.922;2024-01-30T12:57:40;11.70;99.90
5009;DHT22;2523;51.058;6.922;2024-01-30T13:00:07;11.70;99.90
5009;DHT22;2523;51.058;6.922;2024-01-30T13:02:36;11.70;99.90
5009;DHT22;2523;51.058;6.922;2024-01-30T13:05:03;11.60;99.90
5009;DHT22;2523;51.058;6.922;2024-01-30T13:07:29;11.60;99.90
5009;DHT22;2523;51.058;6.922;2024-01-30T13:09:55;11.50;99.90
5009;DHT22;2523;51.058;6.922;2024-01-30T13:12:21;11.40;99.90
5009;DHT22;2523;51.058;6.922;2024-01-30T13:14:47;11.40;99.90
5009;DHT22;2523;51.058;6.922;2024-01-30T13:17:12;11.50;99.90
5009;DHT22;2523;51.058;6.922;2024-01-30T13:19:38;11.60;99.90
5009;DHT22;2523;51.058;6.922;2024-01-30T13:22:04;11.60;99.90
5009;DHT22;2523;51.058;6.922;2024-01-30T13:24:29;11.60;99.90
5009;DHT22;2523;51.058;6.922;2024-01-30T13:26:55;11.60;99.90
5009;DHT22;2523;51.058;6.922;2024-01-30T13:29:20;11.60;99.90
5009;DHT22;2523;51.058;6.922;2024-01-30T13:31:46;11.60;99.90
5009;DHT22;2523;51.058;6.922;2024-01-30T13:34:12;11.60;99.90
5009;DHT22;2523;51.058;6.922;2024-01-30T13:36:39;11.60;99.90
5009;DHT22;2523;51.058;6.922;2024-01-30T13:39:05;11.60;99.90
5009;DHT22;2523;51.058;6.922;2024-01-30T13:41:34;11.70;99.90
5009;DHT22;2523;51.058;6.922;2024-01-30T13:44:00;11.80;99.90
5009;DHT22;2523;51.058;6.922;2024-01-30T13:46:27;11.70;99.90
5009;DHT22;2523;51.058;6.922;2024-01-30T13:48:52;11.70;99.90
5009;DHT22;2523;51.058;6.922;2024-01-30T13:51:18;11.70;99.90
5009;DHT22;2523;51.058;6.922;2024-01-30T13:53:43;11.70;99.90
5009;DHT22;2523;51.058;6.922;2024-01-30T13:56:09;11.70;99.90
5009;DHT22;2523;51.058;6.922;2024-01-30T13:58:34;11.70;99.90
5009;DHT22;2523;51.058;6.922;2024-01-30T14:01:01;11.70;99.90
5009;DHT22;2523;51.058;6.922;2024-01-30T14:03:27;11.70;99.90
5009;DHT22;2523;51.058;6.922;2024-01-30T14:05:53;11.70;99.90
5009;DHT22;2523;51.058;6.922;2024-01-30T14:08:18;11.70;99.90
5009;DHT22;2523;51.058;6.922;2024-01-30T14:10:47;11.70;99.90
5009;DHT22;2523;51.058;6.922;2024-01-30T14:13:12;11.60;99.90
5009;DHT22;2523;51.058;6.922;2024-01-30T14:15:38;11.60;99.90
5009;DHT22;2523;51.058;6.922;2024-01-30T14:18:04;11.60;99.90
5009;DHT22;2523;51.058;6.922;2024-01-30T14:20:30;11.60;99.90
5009;DHT22;2523;51.058;6.922;2024-01-30T14:22:56;11.60;99.90
5009;DHT22;2523;51.058;6.922;2024-01-30T14:25:22;11.60;99.90
5009;DHT22;2523;51.058;6.922;2024-01-30T14:27:47;11.60;99.90
5009;DHT22;2523;51.058;6.922;2024-01-30T14:30:13;11.60;99.90
5009;DHT22;2523;51.058;6.922;2024-01-30T14:32:39;11.60;99.90
5009;DHT22;2523;51.058;6.922;2024-01-30T14:35:06;11.70;99.90
5009;DHT22;2523;51.058;6.922;2024-01-30T14:37:31;11.70;99.90
5009;DHT22;2523;51.058;6.922;2024-01-30T14:39:57;11.70;99.90
5009;DHT22;2523;51.058;6.922;2024-01-30T14:42:22;11.80;99.90
5009;DHT22;2523;51.058;6.922;2024-01-30T14:44:48;11.80;99.90
5009;DHT22;2523;51.058;6.922;2024-01-30T14:47:14;11.80;99.90
5009;DHT22;2523;51.058;6.922;2024-01-30T14:49:40;11.80;99.90
5009;DHT22;2523;51.058;6.922;2024-01-30T14:52:05;11.70;99.90
5009;DHT22;2523;51.058;6.922;2024-01-30T14:54:31;11.80;99.90
5009;DHT22;2523;51.058;6.922;2024-01-30T14:56:57;11.70;99.90
5009;DHT22;2523;51.058;6.922;2024-01-30T14:59:23;11.70;99.90
5009;DHT22;2523;51.058;6.922;2024-01-30T15:01:48;11.70;99.90
5009;DHT22;2523;51.058;6.922;2024-01-30T15:04:14;11.60;99.90
5009;DHT22;2523;51.058;6.922;2024-01-30T15:06:40;11.60;99.90
5009;DHT22;2523;51.058;6.922;2024-01-30T15:09:11;11.60;99.90
5009;DHT22;2523;51.058;6.922;2024-01-30T15:11:39;11.50;99.90
5009;DHT22;2523;51.058;6.922;2024-01-30T15:14:05;11.50;99.90
5009;DHT22;2523;51.058;6.922;2024-01-30T15:16:36;11.50;99.90
5009;DHT22;2523;51.058;6.922;2024-01-30T15:19:02;11.40;99.90
5009;DHT22;2523;51.058;6.922;2024-01-30T15:21:32;11.50;99.90
5009;DHT22;2523;51.058;6.922;2024-01-30T15:23:58;11.40;99.90
5009;DHT22;2523;51.058;6.922;2024-01-30T15:26:23;11.40;99.90
5009;DHT22;2523;51.058;6.922;2024-01-30T15:28:49;11.40;99.90
5009;DHT22;2523;51.058;6.922;2024-01-30T15:31:14;11.40;99.90
5009;DHT22;2523;51.058;6.922;2024-01-30T15:33:40;11.40;99.90
5009;DHT22;2523;51.058;6.922;2024-01-30T15:36:06;11.30;99.90
5009;DHT22;2523;51.058;6.922;2024-01-30T15:38:41;11.30;99.90
5009;DHT22;2523;51.058;6.922;2024-01-30T15:41:16;11.30;99.90
5009;DHT22;2523;51.058;6.922;2024-01-30T15:43:42;11.30;99.90
5009;DHT22;2523;51.058;6.922;2024-01-30T15:46:08;11.30;99.90
5009;DHT22;2523;51.058;6.922;2024-01-30T15:48:33;11.30;99.90
5009;DHT22;2523;51.058;6.922;2024-01-30T15:50:59;11.20;99.90
5009;DHT22;2523;51.058;6.922;2024-01-30T15:53:26;11.20;99.90
5009;DHT22;2523;51.058;6.922;2024-01-30T15:55:52;11.20;99.90
5009;DHT22;2523;51.058;6.922;2024-01-30T15:58:17;11.10;99.90
5009;DHT22;2523;51.058;6.922;2024-01-30T16:00:43;11.10;99.90
5009;DHT22;2523;51.058;6.922;2024-01-30T16:03:09;11.00;99.90
5009;DHT22;2523;51.058;6.922;2024-01-30T16:05:34;11.00;99.90